Anatife — FGE8389 — position and weather

sailwx.info

Track history (hours):
 
Tides and Currents Weather Stations Pressure Air Temp Water Temp Dewpoint Dewpoint Depression Visibility Wind Speed Wind Dir Waves Ship Positions

Anatife

Last reported at 2015-Mar-21 22:08 UTC. Time now 2015-Mar-29 09:20 UTC.
Position N 47°18' W 002°05'.

Length 41 m; draft 2 m.

Type: Tanker. MMSI: 227681520.

Date/timePositionNaut miles runAvg speedWind from/ knotsBaromVisibWave heightAir tempDewpointWater temp
2015-Mar-21 22:08N 47°18' W 002°05'0 0.0
2015-Mar-21 10:18N 47°18' W 002°05'0 0.0
2015-Mar-21 09:33N 47°18' W 002°05'0 0.0
2015-Mar-21 08:30N 47°18' W 002°05'0 0.0
2015-Mar-21 05:18N 47°18' W 002°05'0 0.0
2015-Mar-21 04:34N 47°18' W 002°05'28 2.2
2015-Mar-20 15:23N 47°16' W 002°47'910.4
2015-Mar-20 14:31N 47°19' W 002°59'7 0.3
2015-Mar-19 16:15N 47°21' W 003°09'1 1.4
2015-Mar-19 15:33N 47°21' W 003°08'4 3.9
2015-Mar-19 14:33N 47°20' W 003°02'4 4.4
2015-Mar-19 13:33N 47°18' W 002°56'5 4.9
2015-Mar-19 12:33N 47°17' W 002°49'7 7.3
2015-Mar-19 11:33N 47°15' W 002°39'9 9.1
2015-Mar-19 10:33N 47°13' W 002°26'10 9.1
2015-Mar-19 09:26N 47°16' W 002°11'5 5.5
2015-Mar-19 08:33N 47°18' W 002°05'0 0.0
2015-Mar-19 07:23N 47°18' W 002°05'0 0.0
2015-Mar-19 06:31N 47°18' W 002°05'0 0.0
2015-Mar-19 05:33N 47°18' W 002°05'0 0.0
2015-Mar-19 04:33N 47°18' W 002°05'0 0.0
2015-Mar-19 03:33N 47°18' W 002°05'0 0.0
2015-Mar-19 02:31N 47°18' W 002°05'0 0.0
2015-Mar-19 01:32N 47°18' W 002°05'0 0.0
2015-Mar-19 00:19N 47°18' W 002°05'0 0.0
2015-Mar-18 23:33N 47°18' W 002°05'0 0.0
2015-Mar-18 21:33N 47°18' W 002°05'0 0.0
2015-Mar-18 07:25N 47°18' W 002°05'0 0.0
2015-Mar-18 06:33N 47°18' W 002°05'0 0.0
2015-Mar-18 05:28N 47°18' W 002°05'  
Track history (hours):
 
Tides and Currents Weather Stations Pressure Air Temp Water Temp Dewpoint Dewpoint Depression Visibility Wind Speed Wind Dir Waves Ship Positions

Anatife

Last reported at 2015-Mar-21 22:08 UTC. Time now 2015-Mar-29 09:20 UTC.
Position N 47°18' W 002°05'.

Length 41 m; draft 2 m.

Type: Tanker. MMSI: 227681520.

Date/timePositionNaut miles runAvg speedWind from/ knotsBaromVisibWave heightAir tempDewpointWater temp
2015-Mar-21 22:08N 47°18' W 002°05'0 0.0
2015-Mar-21 10:18N 47°18' W 002°05'0 0.0
2015-Mar-21 09:33N 47°18' W 002°05'0 0.0
2015-Mar-21 08:30N 47°18' W 002°05'0 0.0
2015-Mar-21 05:18N 47°18' W 002°05'0 0.0
2015-Mar-21 04:34N 47°18' W 002°05'28 2.2
2015-Mar-20 15:23N 47°16' W 002°47'910.4
2015-Mar-20 14:31N 47°19' W 002°59'7 0.3
2015-Mar-19 16:15N 47°21' W 003°09'1 1.4
2015-Mar-19 15:33N 47°21' W 003°08'4 3.9
2015-Mar-19 14:33N 47°20' W 003°02'4 4.4
2015-Mar-19 13:33N 47°18' W 002°56'5 4.9
2015-Mar-19 12:33N 47°17' W 002°49'7 7.3
2015-Mar-19 11:33N 47°15' W 002°39'9 9.1
2015-Mar-19 10:33N 47°13' W 002°26'10 9.1
2015-Mar-19 09:26N 47°16' W 002°11'5 5.5
2015-Mar-19 08:33N 47°18' W 002°05'0 0.0
2015-Mar-19 07:23N 47°18' W 002°05'0 0.0
2015-Mar-19 06:31N 47°18' W 002°05'0 0.0
2015-Mar-19 05:33N 47°18' W 002°05'0 0.0
2015-Mar-19 04:33N 47°18' W 002°05'0 0.0
2015-Mar-19 03:33N 47°18' W 002°05'0 0.0
2015-Mar-19 02:31N 47°18' W 002°05'0 0.0
2015-Mar-19 01:32N 47°18' W 002°05'0 0.0
2015-Mar-19 00:19N 47°18' W 002°05'0 0.0
2015-Mar-18 23:33N 47°18' W 002°05'0 0.0
2015-Mar-18 21:33N 47°18' W 002°05'0 0.0
2015-Mar-18 07:25N 47°18' W 002°05'0 0.0
2015-Mar-18 06:33N 47°18' W 002°05'0 0.0
2015-Mar-18 05:28N 47°18' W 002°05'  

Dump ship's entire track history